| time (UTC) | temp F | wind direction | speed MPH | gust MPH | rain 1hr in | rain 24hr in | rain mn in | humidity % | barometer mb |
| 20260508014553 | 54 | 49 | 0.0 | 2.0 | 0.00 | 0.11 | 0.00 | 84 | 1009.7 |
| 20260508013052 | 55 | 0 | 0.0 | 2.0 | 0.00 | 0.11 | 0.00 | 84 | 1010.0 |
| 20260508011554 | 55 | 98 | 1.0 | 3.0 | 0.00 | 0.11 | 0.00 | 84 | 1010.1 |
| 20260508010109 | 55 | 20 | 1.0 | 4.0 | 0.00 | 0.11 | 0.00 | 84 | 1010.2 |
| 20260508004549 | 55 | 52 | 1.0 | 4.0 | 0.00 | 0.11 | 0.00 | 84 | 1010.3 |
| 20260508003101 | 55 | 27 | 1.0 | 2.0 | 0.00 | 0.11 | 0.00 | 86 | 1010.2 |
| 20260508001557 | 55 | 60 | 0.0 | 3.0 | 0.00 | 0.11 | 0.00 | 87 | 1010.4 |
| 20260508000056 | 55 | 0 | 0.0 | 3.0 | 0.00 | 0.11 | 0.00 | 88 | 1010.6 |
| 20260507234556 | 55 | 54 | 0.0 | 3.0 | 0.00 | 0.11 | 0.00 | 88 | 1010.7 |
| 20260507233057 | 55 | 9 | 1.0 | 3.0 | 0.00 | 0.11 | 0.00 | 88 | 1010.4 |
| 20260507231553 | 55 | 0 | 0.0 | 2.0 | 0.00 | 0.11 | 0.00 | 88 | 1010.5 |
| 20260507230109 | 55 | 0 | 0.0 | 1.0 | 0.00 | 0.11 | 0.00 | 88 | 1010.6 |
| 20260507224555 | 56 | 0 | 0.0 | 2.0 | 0.00 | 0.11 | 0.00 | 88 | 1010.8 |
| 20260507223150 | 56 | 0 | 0.0 | 2.0 | 0.00 | 0.11 | 0.00 | 88 | 1010.9 |
| 20260507221552 | 56 | 0 | 0.0 | 1.0 | 0.00 | 0.11 | 0.00 | 87 | 1010.9 |
| 20260507220052 | 56 | 0 | 0.0 | 3.0 | 0.00 | 0.11 | 0.00 | 87 | 1011.0 |
| 20260507214557 | 57 | 0 | 0.0 | 1.0 | 0.00 | 0.11 | 0.11 | 87 | 1010.8 |
| 20260507213119 | 56 | 0 | 0.0 | 1.0 | 0.00 | 0.11 | 0.11 | 87 | 1010.8 |
| 20260507211552 | 57 | 0 | 0.0 | 1.0 | 0.00 | 0.11 | 0.11 | 87 | 1010.8 |
| 20260507210057 | 57 | 0 | 0.0 | 1.0 | 0.00 | 0.11 | 0.11 | 86 | 1010.8 |
| 20260507204549 | 57 | 0 | 0.0 | 0.0 | 0.00 | 0.11 | 0.11 | 85 | 1010.7 |
| 20260507203051 | 58 | 0 | 0.0 | 0.0 | 0.00 | 0.11 | 0.11 | 85 | 1010.6 |
| 20260507201603 | 58 | 102 | 0.0 | 1.0 | 0.00 | 0.11 | 0.11 | 85 | 1010.4 |
| 20260507200104 | 59 | 0 | 0.0 | 1.0 | 0.00 | 0.11 | 0.11 | 84 | 1010.3 |
| 20260507194556 | 59 | 0 | 0.0 | 0.0 | 0.00 | 0.11 | 0.11 | 84 | 1010.0 |
| 20260507193055 | 59 | 0 | 0.0 | 1.0 | 0.00 | 0.11 | 0.11 | 84 | 1010.0 |
| 20260507191552 | 60 | 0 | 0.0 | 1.0 | 0.00 | 0.11 | 0.11 | 83 | 1010.0 |
| 20260507190053 | 60 | 0 | 0.0 | 1.0 | 0.00 | 0.11 | 0.11 | 83 | 1009.9 |
| 20260507184554 | 60 | 334 | 0.0 | 0.0 | 0.00 | 0.11 | 0.11 | 82 | 1009.9 |
| 20260507183055 | 60 | 0 | 0.0 | 1.0 | 0.00 | 0.11 | 0.11 | 83 | 1009.7 |
| 20260507181556 | 60 | 0 | 0.0 | 0.0 | 0.00 | 0.11 | 0.11 | 84 | 1009.8 |
| 20260507180056 | 60 | 0 | 0.0 | 0.0 | 0.00 | 0.11 | 0.11 | 85 | 1009.5 |
| 20260507174602 | 60 | 0 | 0.0 | 0.0 | 0.00 | 0.11 | 0.11 | 85 | 1009.6 |
| 20260507173059 | 60 | 0 | 0.0 | 0.0 | 0.00 | 0.11 | 0.11 | 83 | 1009.7 |
| 20260507171603 | 60 | 0 | 0.0 | 1.0 | 0.00 | 0.11 | 0.11 | 84 | 1009.8 |
| 20260507170055 | 60 | 0 | 0.0 | 6.0 | 0.11 | 0.11 | 0.11 | 84 | 1010.4 |
| 20260507164556 | 59 | 82 | 0.0 | 3.0 | 0.11 | 0.11 | 0.11 | 83 | 1010.1 |
| 20260507163054 | 60 | 310 | 1.0 | 4.0 | 0.10 | 0.10 | 0.10 | 80 | 1010.3 |
| 20260507161609 | 62 | 0 | 0.0 | 5.0 | 0.10 | 0.10 | 0.10 | 75 | 1010.0 |
| 20260507154558 | 67 | 207 | 4.0 | 11.0 | 0.00 | 0.00 | 0.00 | 68 | 1009.7 |
| 20260507153111 | 68 | 137 | 1.0 | 7.0 | 0.00 | 0.00 | 0.00 | 67 | 1009.3 |
| 20260507151558 | 69 | 108 | 1.0 | 6.0 | 0.00 | 0.00 | 0.00 | 66 | 1009.2 |
| 20260507150054 | 69 | 131 | 0.0 | 5.0 | 0.00 | 0.00 | 0.00 | 65 | 1009.0 |
| 20260507144553 | 71 | 155 | 0.0 | 5.0 | 0.00 | 0.00 | 0.00 | 63 | 1009.2 |
| 20260507143055 | 73 | 122 | 1.0 | 5.0 | 0.00 | 0.00 | 0.00 | 61 | 1009.2 |
| 20260507141552 | 74 | 122 | 2.0 | 7.0 | 0.00 | 0.00 | 0.00 | 60 | 1009.1 |
| 20260507140053 | 74 | 126 | 1.0 | 8.0 | 0.00 | 0.00 | 0.00 | 61 | 1009.2 |
| 20260507134558 | 74 | 60 | 2.0 | 9.0 | 0.00 | 0.00 | 0.00 | 61 | 1009.4 |
| 20260507133053 | 74 | 22 | 1.0 | 7.0 | 0.00 | 0.00 | 0.00 | 60 | 1009.5 |
| 20260507131554 | 73 | 176 | 0.0 | 2.0 | 0.00 | 0.00 | 0.00 | 61 | 1009.8 |
| 20260507130105 | 73 | 126 | 0.0 | 2.0 | 0.00 | 0.00 | 0.00 | 67 | 1010.0 |
| 20260507124618 | 71 | 0 | 0.0 | 3.0 | 0.00 | 0.00 | 0.00 | 62 | 1010.3 |
| 20260507123107 | 70 | 176 | 1.0 | 3.0 | 0.00 | 0.00 | 0.00 | 65 | 1010.5 |
| 20260507121601 | 68 | 163 | 1.0 | 5.0 | 0.00 | 0.00 | 0.00 | 64 | 1010.9 |
| 20260507120100 | 69 | 221 | 1.0 | 3.0 | 0.00 | 0.00 | 0.00 | 66 | 1011.0 |
| 20260507114554 | 67 | 297 | 1.0 | 4.0 | 0.00 | 0.00 | 0.00 | 69 | 1011.3 |
| 20260507113056 | 66 | 165 | 3.0 | 6.0 | 0.00 | 0.00 | 0.00 | 67 | 1011.5 |
| 20260507111553 | 68 | 354 | 1.0 | 3.0 | 0.00 | 0.00 | 0.00 | 69 | 1011.4 |
| 20260507110054 | 67 | 288 | 1.0 | 5.0 | 0.00 | 0.00 | 0.00 | 69 | 1011.5 |
| 20260507104555 | 68 | 0 | 1.0 | 3.0 | 0.00 | 0.01 | 0.00 | 66 | 1011.7 |
| 20260507103057 | 68 | 115 | 0.0 | 4.0 | 0.00 | 0.01 | 0.00 | 66 | 1012.0 |
| 20260507101601 | 67 | 176 | 1.0 | 3.0 | 0.00 | 0.01 | 0.00 | 67 | 1012.2 |
| 20260507100106 | 65 | 139 | 0.0 | 4.0 | 0.00 | 0.01 | 0.00 | 70 | 1012.6 |
| 20260507094553 | 65 | 0 | 0.0 | 3.0 | 0.00 | 0.01 | 0.00 | 71 | 1012.8 |
| 20260507093053 | 62 | 0 | 0.0 | 3.0 | 0.00 | 0.01 | 0.00 | 73 | 1012.9 |
| 20260507091553 | 59 | 4 | 0.0 | 4.0 | 0.00 | 0.01 | 0.00 | 80 | 1013.0 |
| 20260507090052 | 55 | 0 | 0.0 | 4.0 | 0.00 | 0.01 | 0.00 | 83 | 1013.0 |
| 20260507084559 | 54 | 0 | 0.0 | 3.0 | 0.00 | 0.01 | 0.00 | 84 | 1013.1 |
| 20260507083108 | 53 | 0 | 0.0 | 3.0 | 0.00 | 0.01 | 0.00 | 85 | 1013.2 |
| 20260507081600 | 53 | 0 | 0.0 | 3.0 | 0.00 | 0.01 | 0.00 | 85 | 1013.2 |
| 20260507080055 | 53 | 0 | 1.0 | 3.0 | 0.00 | 0.01 | 0.00 | 85 | 1013.1 |
| 20260507074606 | 53 | 89 | 1.0 | 3.0 | 0.00 | 0.01 | 0.00 | 85 | 1013.5 |
| 20260507073100 | 53 | 134 | 1.0 | 6.0 | 0.00 | 0.01 | 0.00 | 84 | 1013.4 |
| 20260507071553 | 53 | 107 | 1.0 | 5.0 | 0.00 | 0.01 | 0.00 | 88 | 1013.5 |
| 20260507070056 | 51 | 31 | 1.0 | 3.0 | 0.00 | 0.01 | 0.00 | 91 | 1013.7 |
| 20260507064549 | 49 | 0 | 0.0 | 3.0 | 0.00 | 0.01 | 0.00 | 92 | 1013.7 |
| 20260507063051 | 48 | 0 | 1.0 | 3.0 | 0.00 | 0.01 | 0.00 | 92 | 1013.8 |
| 20260507061552 | 48 | 66 | 0.0 | 3.0 | 0.00 | 0.01 | 0.00 | 92 | 1013.8 |
| 20260507060052 | 48 | 0 | 0.0 | 5.0 | 0.00 | 0.01 | 0.00 | 92 | 1013.8 |
| 20260507054551 | 47 | 82 | 0.0 | 6.0 | 0.00 | 0.01 | 0.00 | 92 | 1013.8 |
| 20260507053051 | 47 | 34 | 0.0 | 4.0 | 0.00 | 0.01 | 0.00 | 92 | 1013.6 |
| 20260507051549 | 47 | 0 | 0.0 | 4.0 | 0.00 | 0.01 | 0.00 | 92 | 1013.5 |
| 20260507050057 | 47 | 142 | 0.0 | 2.0 | 0.00 | 0.01 | 0.00 | 92 | 1013.7 |
| 20260507044551 | 47 | 67 | 1.0 | 3.0 | 0.00 | 0.01 | 0.00 | 92 | 1013.9 |
| 20260507043051 | 48 | 79 | 0.0 | 3.0 | 0.00 | 0.01 | 0.00 | 92 | 1013.9 |
| 20260507041553 | 48 | 0 | 0.0 | 3.0 | 0.00 | 0.01 | 0.00 | 92 | 1013.8 |
| 20260507040054 | 47 | 124 | 0.0 | 3.0 | 0.00 | 0.01 | 0.00 | 92 | 1013.9 |
| 20260507034553 | 48 | 0 | 0.0 | 2.0 | 0.00 | 0.01 | 0.00 | 92 | 1013.9 |
| 20260507033054 | 47 | 47 | 0.0 | 3.0 | 0.00 | 0.01 | 0.00 | 92 | 1013.9 |
| 20260507031550 | 47 | 0 | 0.0 | 2.0 | 0.00 | 0.01 | 0.00 | 92 | 1014.0 |
| 20260507030055 | 47 | 84 | 0.0 | 2.0 | 0.00 | 0.01 | 0.00 | 92 | 1014.0 |
| 20260507024602 | 48 | 0 | 0.0 | 1.0 | 0.00 | 0.01 | 0.00 | 91 | 1014.0 |
| 20260507023054 | 48 | 0 | 0.0 | 2.0 | 0.00 | 0.01 | 0.00 | 91 | 1014.1 |
| 20260507021559 | 48 | 0 | 0.0 | 2.0 | 0.00 | 0.01 | 0.00 | 91 | 1014.1 |
| 20260507020108 | 48 | 0 | 0.0 | 2.0 | 0.00 | 0.01 | 0.00 | 91 | 1014.2 |